Time;durP1;ratioP1;P1;durP2;ratioP2;P2;SDS_P1;SDS_P2;PMS_P1;PMS_P2;Temp;Humidity;BMP_temperature;BMP_pressure;BME280_temperature;BME280_humidity;BME280_pressure;Samples;Min_cycle;Max_cycle;Signal;HPM_P1;HPM_P2
2023/07/07 08:47:00;;;;;;;988.10;643.42;;;;;;;24.77;46.62;96952.16;2091529;27;20910;-56
2023/07/07 08:49:41;;;;;;;969.83;868.22;;;;;;;25.10;45.54;96951.63;2100292;27;20574;-57
2023/07/07 08:52:47;;;;;;;1080.30;974.00;;;;;;;25.48;45.04;96949.66;2092527;27;20568;-57
2023/07/07 08:55:31;;;;;;;733.95;662.72;;;;;;;25.54;43.59;96950.88;2081965;28;20561;-57
2023/07/07 08:58:18;;;;;;;696.78;625.97;;;;;;;25.94;44.19;96948.66;2085186;28;20564;-57
2023/07/07 09:01:15;;;;;;;757.80;691.85;;;;;;;26.07;43.40;96939.22;2108162;27;20905;-56
2023/07/07 09:04:09;;;;;;;763.80;696.35;;;;;;;25.70;43.30;96943.00;2100892;27;20545;-57
2023/07/07 09:07:04;;;;;;;1154.22;999.90;;;;;;;26.04;41.92;96946.69;2085336;28;20555;-56
2023/07/07 09:08:27;;;;;;;1113.85;999.90;;;;;;;26.29;41.61;96944.19;2079090;28;20194;-57
2023/07/07 09:11:34;;;;;;;1008.15;919.65;;;;;;;26.37;41.13;96936.19;2084004;28;20558;-57
2023/07/07 09:12:45;;;;;;;12.88;5.90;;;;;;;25.75;40.56;96947.88;2081886;28;20200;-57
2023/07/07 09:15:26;;;;;;;11.25;5.70;;;;;;;25.32;41.57;96944.16;2077613;28;20601;-56
2023/07/07 09:16:32;;;;;;;11.77;5.65;;;;;;;25.31;40.44;96940.66;2074474;28;20198;-57
2023/07/07 09:19:36;;;;;;;13.02;5.72;;;;;;;26.00;39.45;96935.47;2082023;28;20564;-57
2023/07/07 09:20:38;;;;;;;11.13;5.32;;;;;;;26.10;40.47;96939.91;2072724;28;20236;-57
2023/07/07 09:21:55;;;;;;;9.60;5.18;;;;;;;26.00;39.47;96932.78;2070542;28;20200;-58
2023/07/07 09:24:39;;;;;;;13.82;5.65;;;;;;;25.94;39.45;96927.25;2091768;27;20570;-59
2023/07/07 09:25:46;;;;;;;10.77;6.43;;;;;;;26.23;39.04;96933.13;2074179;28;20205;-57
2023/07/07 09:26:56;;;;;;;13.07;6.35;;;;;;;26.29;39.39;96928.13;2070873;28;20202;-57
2023/07/07 09:29:53;;;;;;;13.27;6.10;;;;;;;25.98;38.67;96936.63;2082955;28;20561;-57
2023/07/07 09:30:58;;;;;;;11.43;6.18;;;;;;;25.13;40.24;96945.16;2082107;28;20560;-57
2023/07/07 09:32:02;;;;;;;11.98;6.18;;;;;;;25.51;39.96;96925.31;2082896;28;20193;-57
2023/07/07 09:33:05;;;;;;;13.80;6.43;;;;;;;25.56;41.03;96920.34;2082706;28;20258;-57
2023/07/07 09:35:57;;;;;;;13.35;6.57;;;;;;;26.43;39.44;96924.00;2085204;28;21051;-58
2023/07/07 09:37:04;;;;;;;11.65;6.00;;;;;;;26.30;40.03;96922.63;2083022;28;20254;-58
2023/07/07 09:38:36;;;;;;;11.23;6.30;;;;;;;26.83;38.40;96917.09;2081547;28;20251;-58
2023/07/07 09:39:44;;;;;;;15.73;6.18;;;;;;;26.72;38.64;96934.31;2079463;28;20190;-58
2023/07/07 09:40:57;;;;;;;10.45;5.35;;;;;;;26.46;39.18;96921.84;2074437;28;20289;-58
2023/07/07 09:44:12;;;;;;;9.15;5.65;;;;;;;27.17;37.83;96922.34;2090312;28;20564;-57
2023/07/07 09:45:29;;;;;;;11.50;5.75;;;;;;;26.81;38.52;96921.81;2077066;28;20236;-57
2023/07/07 09:46:37;;;;;;;12.00;5.63;;;;;;;27.09;39.24;96918.84;2072740;28;20289;-57
2023/07/07 09:47:51;;;;;;;9.40;6.15;;;;;;;27.35;38.09;96921.34;2073928;28;20198;-57
2023/07/07 09:49:06;;;;;;;9.82;6.20;;;;;;;27.13;37.71;96921.00;2074956;28;20585;-57
2023/07/07 09:50:26;;;;;;;11.95;5.70;;;;;;;27.29;38.56;96917.50;2069520;28;20226;-57
2023/07/07 09:53:40;;;;;;;11.93;6.53;;;;;;;26.92;38.78;96916.13;2084611;28;20565;-57
2023/07/07 09:54:49;;;;;;;13.95;5.70;;;;;;;26.79;38.36;96915.75;2079870;28;20594;-57
2023/07/07 09:55:52;;;;;;;11.45;6.53;;;;;;;26.96;38.59;96916.66;2073875;28;20610;-57
2023/07/07 09:57:01;;;;;;;17.27;6.75;;;;;;;27.29;38.00;96925.53;2074167;28;20293;-57
2023/07/07 09:58:18;;;;;;;11.27;6.03;;;;;;;27.19;37.86;96924.88;2070807;28;20206;-57
2023/07/07 09:59:25;;;;;;;11.73;6.10;;;;;;;26.85;37.40;96920.47;2073408;28;20205;-57
2023/07/07 10:00:29;;;;;;;11.95;7.30;;;;;;;26.66;37.08;96917.03;2072616;28;20276;-57
2023/07/07 10:01:49;;;;;;;12.40;7.45;;;;;;;27.29;36.76;96914.81;2073696;28;20197;-58
2023/07/07 10:02:51;;;;;;;12.63;7.68;;;;;;;27.54;36.73;96913.00;2073569;28;20558;-57
2023/07/07 10:03:54;;;;;;;13.27;6.90;;;;;;;27.42;36.14;96918.88;2070650;28;20206;-57
2023/07/07 10:07:18;;;;;;;16.50;8.45;;;;;;;28.22;35.63;96918.06;2084572;28;20874;-57
2023/07/07 10:08:20;;;;;;;14.32;7.63;;;;;;;27.61;36.64;96918.50;2080196;28;20199;-57
2023/07/07 10:09:21;;;;;;;17.02;6.93;;;;;;;27.47;36.73;96906.63;2080069;28;20201;-57
2023/07/07 10:10:23;;;;;;;25.30;7.68;;;;;;;27.49;36.98;96909.97;2082038;28;20225;-57
2023/07/07 10:11:34;;;;;;;15.35;7.43;;;;;;;27.56;36.78;96910.13;2079046;28;20205;-57
2023/07/07 10:12:56;;;;;;;11.93;7.13;;;;;;;27.05;36.40;96910.28;2076213;28;20256;-57
2023/07/07 10:13:57;;;;;;;11.82;7.85;;;;;;;27.09;36.37;96906.25;2076560;28;20282;-57
2023/07/07 10:14:59;;;;;;;15.35;8.65;;;;;;;27.15;36.03;96902.09;2077717;28;20307;-57
2023/07/07 10:16:07;;;;;;;14.52;7.40;;;;;;;27.66;35.83;96902.75;2081442;28;20720;-57
2023/07/07 10:17:08;;;;;;;14.95;7.43;;;;;;;27.73;35.77;96904.75;2081109;28;20202;-57
2023/07/07 10:18:19;;;;;;;16.25;7.05;;;;;;;27.51;35.84;96910.63;2083696;28;20266;-57
2023/07/07 10:19:23;;;;;;;12.90;7.60;;;;;;;27.04;37.01;96913.97;2081753;28;20224;-57
2023/07/07 10:20:26;;;;;;;12.90;7.50;;;;;;;26.64;38.02;96908.34;2078604;28;20222;-57
2023/07/07 10:21:27;;;;;;;11.40;6.72;;;;;;;26.88;37.28;96904.91;2084086;28;20200;-57
2023/07/07 10:22:29;;;;;;;13.88;6.70;;;;;;;27.14;37.16;96911.97;2080680;28;20293;-58
2023/07/07 10:23:31;;;;;;;11.27;7.38;;;;;;;27.16;37.12;96912.63;2077773;28;20601;-57
2023/07/07 10:27:09;;;;;;;11.57;7.20;;;;;;;27.97;36.66;96903.84;2084166;28;20568;-57
2023/07/07 10:28:16;;;;;;;10.70;6.30;;;;;;;28.01;35.41;96905.16;2081766;28;20196;-57
2023/07/07 10:29:23;;;;;;;10.68;7.13;;;;;;;28.23;35.59;96916.22;2082185;28;20581;-57
2023/07/07 10:30:26;;;;;;;11.38;7.43;;;;;;;28.53;35.78;96909.19;2082129;28;20360;-57
2023/07/07 10:31:27;;;;;;;12.80;7.47;;;;;;;28.09;35.90;96918.63;2083091;28;20628;-57
2023/07/07 10:32:29;;;;;;;10.90;6.75;;;;;;;27.38;36.93;96915.66;2079011;28;20200;-57
2023/07/07 10:33:31;;;;;;;13.40;6.93;;;;;;;27.47;36.82;96905.81;2079126;28;20250;-58
2023/07/07 10:34:36;;;;;;;12.27;7.38;;;;;;;27.41;37.66;96915.34;2081853;28;20731;-57
2023/07/07 10:35:39;;;;;;;13.18;7.65;;;;;;;28.33;36.06;96908.81;2082770;28;20570;-57
2023/07/07 10:36:42;;;;;;;12.65;6.88;;;;;;;28.77;35.69;96913.66;2080969;28;20193;-57
2023/07/07 10:37:44;;;;;;;14.27;8.23;;;;;;;28.59;35.55;96913.03;2082169;28;20211;-57
2023/07/07 10:38:46;;;;;;;15.25;7.38;;;;;;;28.42;35.28;96907.75;2082173;28;20291;-57
2023/07/07 10:39:59;;;;;;;11.15;7.20;;;;;;;28.47;35.20;96910.75;2081078;28;20320;-57
2023/07/07 10:41:01;;;;;;;13.25;7.47;;;;;;;28.38;35.04;96922.53;2083549;28;20236;-57
2023/07/07 10:42:03;;;;;;;13.27;8.27;;;;;;;28.69;34.84;96908.31;2082773;28;20207;-58
2023/07/07 10:43:06;;;;;;;9.93;6.38;;;;;;;28.48;34.79;96909.72;2078875;28;20205;-58
2023/07/07 10:44:08;;;;;;;13.98;8.00;;;;;;;28.63;35.08;96917.88;2079833;28;20262;-58
2023/07/07 10:45:11;;;;;;;10.68;7.10;;;;;;;28.01;34.99;96913.22;2083852;28;20260;-58
2023/07/07 10:46:12;;;;;;;14.80;8.18;;;;;;;28.45;35.02;96911.94;2084142;28;20227;-58
2023/07/07 10:47:19;;;;;;;14.07;8.07;;;;;;;29.37;33.78;96916.63;2082299;28;20279;-58
2023/07/07 10:48:24;;;;;;;10.65;6.68;;;;;;;29.05;33.49;96913.13;2082822;28;20231;-58
2023/07/07 10:49:26;;;;;;;12.20;7.20;;;;;;;28.86;33.55;96909.03;2080072;28;20246;-59
2023/07/07 10:50:35;;;;;;;11.65;7.32;;;;;;;28.72;34.07;96907.13;2081479;28;20278;-58
2023/07/07 10:52:20;;;;;;;10.93;6.95;;;;;;;28.60;34.30;96901.28;2081622;28;20755;-59
2023/07/07 10:54:00;;;;;;;17.23;7.78;;;;;;;28.57;34.03;96907.00;2082766;28;20696;-59
2023/07/07 10:55:26;;;;;;;14.00;7.05;;;;;;;28.58;33.96;96916.72;2080879;28;20221;-59
2023/07/07 10:56:48;;;;;;;22.50;6.95;;;;;;;29.23;33.71;96915.50;2082854;28;20551;-58
2023/07/07 10:58:08;;;;;;;13.95;8.85;;;;;;;29.78;33.23;96915.41;2081834;28;20188;-58
2023/07/07 10:59:32;;;;;;;24.92;8.98;;;;;;;30.01;32.74;96904.56;2082375;28;20193;-58
2023/07/07 11:01:11;;;;;;;22.90;8.15;;;;;;;29.98;32.71;96907.66;2070304;28;20290;-58
2023/07/07 11:02:34;;;;;;;13.52;7.90;;;;;;;29.45;33.68;96913.84;2080494;28;20227;-59
2023/07/07 11:04:26;;;;;;;12.57;7.63;;;;;;;29.58;33.69;96909.69;2081268;28;20356;-58
2023/07/07 11:05:36;;;;;;;11.77;7.10;;;;;;;28.38;34.24;96910.94;2076351;28;20474;-58
2023/07/07 11:07:13;;;;;;;10.63;6.43;;;;;;;28.57;34.09;96915.06;2081853;28;20486;-58
2023/07/07 11:08:35;;;;;;;12.55;7.43;;;;;;;29.45;33.88;96908.47;2083090;28;20430;-59
2023/07/07 11:10:12;;;;;;;14.93;7.95;;;;;;;29.55;33.32;96916.28;2080303;28;20280;-58
2023/07/07 11:11:27;;;;;;;16.67;8.33;;;;;;;29.65;32.26;96911.47;2074317;28;20240;-59
2023/07/07 11:12:29;;;;;;;13.82;7.38;;;;;;;28.81;32.52;96912.28;2074867;28;20489;-58
2023/07/07 11:13:46;;;;;;;14.77;8.57;;;;;;;28.78;33.04;96917.97;2081064;28;20224;-59
2023/07/07 11:15:02;;;;;;;17.40;8.77;;;;;;;29.37;32.09;96905.00;2082796;28;20238;-58
2023/07/07 11:16:41;;;;;;;17.58;7.85;;;;;;;28.94;31.96;96917.06;2081311;28;20919;-59
2023/07/07 11:17:57;;;;;;;10.88;7.30;;;;;;;28.94;31.79;96906.31;2078820;28;20718;-58
2023/07/07 11:19:15;;;;;;;14.10;8.15;;;;;;;28.82;31.36;96897.84;2079533;28;20201;-58
2023/07/07 11:20:26;;;;;;;16.27;7.70;;;;;;;29.06;31.34;96912.09;2078021;28;20220;-59
2023/07/07 11:21:35;;;;;;;18.60;8.40;;;;;;;28.82;32.24;96902.34;2080430;28;20426;-58
2023/07/07 11:22:53;;;;;;;13.37;8.20;;;;;;;29.00;31.96;96905.59;2082284;28;20664;-58
2023/07/07 11:24:13;;;;;;;15.00;8.45;;;;;;;28.96;32.10;96904.28;2082452;28;21155;-58
2023/07/07 11:25:37;;;;;;;13.98;8.25;;;;;;;28.98;31.84;96907.63;2081081;28;20216;-58
2023/07/07 11:26:51;;;;;;;12.38;7.32;;;;;;;29.06;32.47;96900.53;2082712;28;21006;-58
2023/07/07 11:28:16;;;;;;;12.70;8.18;;;;;;;29.21;31.99;96901.41;2083636;28;20200;-58
2023/07/07 11:29:48;;;;;;;19.50;8.20;;;;;;;29.52;32.09;96896.97;2083836;28;20193;-59
2023/07/07 11:31:10;;;;;;;16.55;7.82;;;;;;;28.88;32.00;96892.75;2081753;28;20517;-58
2023/07/07 11:32:20;;;;;;;14.95;9.25;;;;;;;29.16;32.00;96896.56;2081711;28;20334;-59
2023/07/07 11:33:29;;;;;;;14.37;7.73;;;;;;;29.18;30.98;96896.41;2082073;28;20205;-58
2023/07/07 11:34:57;;;;;;;22.50;9.27;;;;;;;29.87;31.30;96886.56;2081554;28;20429;-59
2023/07/07 11:36:20;;;;;;;15.07;8.20;;;;;;;29.17;31.13;96898.25;2081467;28;20220;-59
2023/07/07 11:37:22;;;;;;;16.67;8.88;;;;;;;29.14;31.06;96897.75;2080785;28;20418;-58
2023/07/07 11:38:46;;;;;;;14.43;9.20;;;;;;;29.48;30.63;96885.75;2080035;28;20248;-58
2023/07/07 11:40:10;;;;;;;19.50;8.70;;;;;;;29.32;30.47;96892.13;2077481;28;20522;-59
2023/07/07 11:41:52;;;;;;;23.50;8.20;;;;;;;29.44;30.52;96877.19;2065802;28;20582;-59
2023/07/07 11:43:22;;;;;;;12.25;7.75;;;;;;;29.26;29.80;96882.88;2076139;28;20434;-58
2023/07/07 11:44:42;;;;;;;13.93;8.00;;;;;;;29.37;29.82;96884.34;2074491;28;20236;-58
2023/07/07 11:46:03;;;;;;;19.93;7.37;;;;;;;29.80;29.63;96881.91;2075601;28;20489;-59
2023/07/07 11:47:07;;;;;;;13.80;8.20;;;;;;;29.41;31.06;96879.44;2076327;28;20449;-58
2023/07/07 11:48:37;;;;;;;12.27;8.43;;;;;;;29.88;30.06;96881.00;2077745;28;20431;-58
2023/07/07 11:49:56;;;;;;;15.90;9.13;;;;;;;31.06;29.78;96872.91;2077383;28;20899;-58
2023/07/07 11:51:22;;;;;;;18.47;8.67;;;;;;;30.50;29.27;96867.31;2076413;28;20435;-58
2023/07/07 11:53:01;;;;;;;16.53;8.60;;;;;;;30.18;30.20;96880.16;2075195;28;20905;-59
2023/07/07 11:54:24;;;;;;;16.37;9.30;;;;;;;31.05;29.79;96876.59;2075694;28;20423;-58
2023/07/07 11:56:07;;;;;;;17.80;8.77;;;;;;;30.63;29.76;96872.88;2075593;28;21164;-59
2023/07/07 11:57:17;;;;;;;25.57;9.20;;;;;;;31.56;29.70;96872.91;2075919;28;20509;-59
2023/07/07 11:58:40;;;;;;;21.33;9.37;;;;;;;32.29;29.46;96873.59;2076535;28;20517;-59
2023/07/07 11:59:59;;;;;;;14.67;7.83;;;;;;;32.64;28.57;96871.66;2072425;28;20431;-59
2023/07/07 12:01:18;;;;;;;27.40;8.40;;;;;;;30.57;30.30;96862.84;2076132;28;20426;-58
2023/07/07 12:02:29;;;;;;;17.70;9.47;;;;;;;31.65;29.66;96864.72;2075754;28;20527;-59
2023/07/07 12:03:53;;;;;;;17.50;8.13;;;;;;;31.48;29.15;96861.44;2075516;28;20459;-58
2023/07/07 12:04:59;;;;;;;14.00;8.23;;;;;;;29.79;31.49;96865.94;2075964;28;21332;-58
2023/07/07 12:06:34;;;;;;;14.63;8.10;;;;;;;29.96;31.19;96853.97;2075429;28;20424;-58
2023/07/07 12:08:16;;;;;;;19.73;8.27;;;;;;;30.23;31.45;96870.50;2074353;28;20475;-58
2023/07/07 12:09:50;;;;;;;15.90;8.93;;;;;;;30.00;31.96;96862.53;2072168;28;20467;-58
2023/07/07 12:10:57;;;;;;;12.40;8.60;;;;;;;30.02;31.63;96865.03;2069158;28;20459;-58
2023/07/07 12:12:20;;;;;;;14.87;7.77;;;;;;;30.09;32.05;96861.44;2076814;28;21006;-58
2023/07/07 12:13:30;;;;;;;19.83;7.13;;;;;;;30.04;32.58;96865.69;2076597;28;20904;-59
2023/07/07 12:14:47;;;;;;;13.93;8.13;;;;;;;29.90;31.84;96853.91;2075927;28;20755;-58
2023/07/07 12:15:54;;;;;;;21.83;9.60;;;;;;;29.72;32.94;96859.63;2076245;28;20437;-58
2023/07/07 12:16:58;;;;;;;16.87;8.70;;;;;;;30.11;31.96;96858.53;2075294;28;20927;-58
2023/07/07 12:18:22;;;;;;;18.77;7.50;;;;;;;29.45;32.96;96862.75;2077013;28;20425;-58
2023/07/07 12:19:39;;;;;;;11.00;7.53;;;;;;;29.98;31.87;96853.81;2072749;28;20431;-58
2023/07/07 12:20:46;;;;;;;11.93;7.50;;;;;;;30.35;31.47;96843.94;2073779;28;20552;-58
2023/07/07 12:21:51;;;;;;;12.27;7.23;;;;;;;29.81;32.43;96859.34;2076171;28;20427;-58
2023/07/07 12:22:55;;;;;;;16.07;7.77;;;;;;;29.63;32.35;96854.31;2076399;28;21406;-58
2023/07/07 12:24:21;;;;;;;13.30;7.50;;;;;;;30.38;31.02;96846.22;2076195;28;20850;-58
2023/07/07 12:25:25;;;;;;;15.73;8.40;;;;;;;30.78;30.48;96840.50;2077806;28;20462;-58
2023/07/07 12:26:32;;;;;;;16.00;8.00;;;;;;;31.19;30.71;96856.03;2074508;28;20542;-58
2023/07/07 12:27:41;;;;;;;14.50;7.27;;;;;;;30.97;31.22;96849.78;2075733;28;20458;-58
2023/07/07 12:28:48;;;;;;;11.50;7.63;;;;;;;31.05;31.63;96849.66;2072581;28;20454;-59
2023/07/07 12:29:52;;;;;;;14.43;7.03;;;;;;;30.75;30.97;96849.78;2073558;28;20434;-58
2023/07/07 12:30:54;;;;;;;14.23;8.63;;;;;;;30.08;31.53;96850.81;2074615;28;20450;-58
2023/07/07 12:31:55;;;;;;;12.07;7.60;;;;;;;30.42;31.28;96850.22;2075863;28;20438;-58
2023/07/07 12:32:58;;;;;;;17.10;7.97;;;;;;;30.82;30.54;96849.84;2072716;28;20518;-59
2023/07/07 12:34:37;;;;;;;14.10;9.23;;;;;;;31.00;30.20;96841.31;2073135;28;20998;-58
2023/07/07 12:35:47;;;;;;;20.67;7.03;;;;;;;30.64;30.76;96842.22;2074332;28;20466;-59
2023/07/07 12:36:48;;;;;;;12.57;7.40;;;;;;;29.83;31.30;96845.72;2075924;28;20499;-58
2023/07/07 12:37:50;;;;;;;12.30;7.40;;;;;;;29.79;31.55;96853.31;2074490;28;20430;-59
2023/07/07 12:38:56;;;;;;;12.83;6.97;;;;;;;29.63;31.40;96845.41;2074039;28;20431;-59
2023/07/07 12:40:13;;;;;;;16.00;8.47;;;;;;;29.93;30.86;96848.16;2075948;28;20512;-59
2023/07/07 12:41:18;;;;;;;13.90;7.80;;;;;;;30.01;31.56;96850.75;2076160;28;20518;-58
2023/07/07 12:42:22;;;;;;;21.50;7.40;;;;;;;31.05;30.91;96843.44;2072451;28;20525;-58
2023/07/07 12:43:39;;;;;;;27.70;8.70;;;;;;;32.07;29.95;96844.84;2073062;28;21134;-58
2023/07/07 12:44:41;;;;;;;22.40;7.60;;;;;;;31.05;30.55;96846.13;2072175;28;20937;-58
2023/07/07 12:45:46;;;;;;;20.67;7.63;;;;;;;31.42;30.46;96836.91;2076332;28;20427;-58
2023/07/07 12:46:47;;;;;;;18.60;8.10;;;;;;;32.44;29.90;96843.75;2075753;28;20515;-58
2023/07/07 12:47:56;;;;;;;21.60;7.67;;;;;;;32.60;29.39;96840.69;2076922;28;20458;-58
2023/07/07 12:49:04;;;;;;;20.47;7.80;;;;;;;30.94;29.95;96842.94;2076394;28;20427;-58
2023/07/07 12:50:39;;;;;;;20.30;8.40;;;;;;;31.79;30.33;96838.66;2074615;28;20463;-58
2023/07/07 12:51:41;;;;;;;11.90;7.83;;;;;;;32.84;29.23;96843.88;2085198;28;20435;-58
2023/07/07 12:52:44;;;;;;;12.83;7.33;;;;;;;31.82;29.10;96844.47;2083457;28;20438;-59
2023/07/07 12:53:53;;;;;;;13.40;8.27;;;;;;;31.64;29.67;96849.53;2075747;28;20437;-58
2023/07/07 12:55:15;;;;;;;10.00;6.80;;;;;;;31.36;29.29;96839.56;2076036;28;20468;-58
2023/07/07 12:56:25;;;;;;;18.33;7.07;;;;;;;31.15;30.00;96840.41;2078050;28;20422;-58
2023/07/07 12:57:27;;;;;;;17.20;6.77;;;;;;;31.38;29.23;96838.34;2075700;28;20431;-58
2023/07/07 12:58:31;;;;;;;14.90;7.30;;;;;;;31.60;28.53;96835.59;2075093;28;20880;-58
2023/07/07 12:59:36;;;;;;;11.83;6.80;;;;;;;32.36;27.57;96840.19;2076946;28;20933;-59
2023/07/07 13:00:41;;;;;;;12.20;6.97;;;;;;;32.13;27.40;96836.97;2076401;28;20439;-59
2023/07/07 13:01:42;;;;;;;13.57;7.97;;;;;;;31.77;28.29;96828.06;2076790;28;20434;-59
2023/07/07 13:03:21;;;;;;;13.07;7.67;;;;;;;31.84;28.63;96828.91;2076132;28;20427;-59
2023/07/07 13:04:39;;;;;;;11.97;7.10;;;;;;;32.29;28.51;96827.69;2074384;28;20470;-58
2023/07/07 13:05:46;;;;;;;12.37;6.87;;;;;;;32.63;28.30;96812.41;2074885;28;20458;-58
2023/07/07 13:06:51;;;;;;;12.50;7.77;;;;;;;32.19;28.55;96817.28;2076872;28;20427;-58
2023/07/07 13:08:00;;;;;;;15.47;7.73;;;;;;;31.76;28.54;96820.97;2074671;28;20459;-58
2023/07/07 13:09:14;;;;;;;12.70;7.80;;;;;;;31.82;28.65;96824.75;2076640;28;20426;-58
2023/07/07 13:10:59;;;;;;;13.83;6.83;;;;;;;31.32;29.22;96822.13;2074393;28;20458;-59
2023/07/07 13:12:01;;;;;;;11.70;7.33;;;;;;;31.45;29.18;96815.97;2066878;28;20529;-59
2023/07/07 13:13:17;;;;;;;13.70;7.57;;;;;;;32.29;28.56;96814.19;2067363;28;20556;-59
2023/07/07 13:14:41;;;;;;;11.53;7.37;;;;;;;32.31;28.86;96823.75;2068529;28;20451;-58
2023/07/07 13:15:42;;;;;;;13.57;7.80;;;;;;;31.81;28.78;96820.38;2068201;28;20915;-59
2023/07/07 13:16:44;;;;;;;12.70;8.10;;;;;;;31.69;29.31;96815.56;2066922;28;20435;-58
2023/07/07 13:17:48;;;;;;;9.67;6.33;;;;;;;32.07;29.10;96828.63;2067353;28;20788;-58
2023/07/07 13:18:50;;;;;;;13.20;6.63;;;;;;;31.82;28.75;96830.13;2068630;28;21583;-58
2023/07/07 13:19:57;;;;;;;12.60;7.63;;;;;;;31.41;28.54;96827.16;2065578;28;20530;-59
2023/07/07 13:21:00;;;;;;;12.67;6.40;;;;;;;31.73;28.77;96824.06;2066724;28;21267;-58
2023/07/07 13:22:10;;;;;;;13.13;6.57;;;;;;;31.79;28.26;96817.88;2066127;28;20428;-58
2023/07/07 13:23:19;;;;;;;9.37;6.37;;;;;;;32.06;27.95;96812.59;2065451;28;20430;-59
2023/07/07 13:24:24;;;;;;;10.87;6.50;;;;;;;31.64;28.53;96792.88;2067332;28;20518;-59
2023/07/07 13:25:30;;;;;;;11.50;7.20;;;;;;;31.80;28.31;96816.84;2067319;28;20455;-58
2023/07/07 13:26:31;;;;;;;9.60;5.83;;;;;;;31.69;27.89;96826.34;2066601;28;20467;-59
2023/07/07 13:27:33;;;;;;;10.37;6.70;;;;;;;31.70;28.19;96814.50;2068666;28;20999;-58
2023/07/07 13:28:35;;;;;;;12.70;6.83;;;;;;;31.64;27.60;96818.00;2067309;28;20463;-59
2023/07/07 13:29:41;;;;;;;12.70;6.60;;;;;;;31.99;27.56;96807.19;2066424;28;20578;-58
2023/07/07 13:30:46;;;;;;;14.47;7.40;;;;;;;32.34;27.84;96811.69;2064916;28;20574;-59
2023/07/07 13:31:48;;;;;;;9.87;5.90;;;;;;;32.28;27.53;96807.97;2069516;28;21091;-59
2023/07/07 13:32:49;;;;;;;12.33;6.00;;;;;;;32.15;27.59;96816.81;2069058;28;20515;-59
2023/07/07 13:33:51;;;;;;;15.20;6.27;;;;;;;32.64;27.65;96812.19;2066104;28;20771;-58
2023/07/07 13:34:52;;;;;;;12.87;6.53;;;;;;;32.41;27.39;96809.88;2058531;28;20538;-59
2023/07/07 13:36:00;;;;;;;10.30;6.33;;;;;;;32.77;27.21;96807.91;2059892;28;20954;-59
2023/07/07 13:37:07;;;;;;;12.73;6.80;;;;;;;33.13;27.73;96807.50;2068025;28;20624;-58
2023/07/07 13:38:13;;;;;;;21.57;7.40;;;;;;;33.18;27.11;96813.13;2067788;28;20451;-58
2023/07/07 13:39:18;;;;;;;10.97;6.23;;;;;;;33.26;27.69;96812.06;2067823;28;20972;-59
2023/07/07 13:40:19;;;;;;;9.90;6.60;;;;;;;33.71;27.14;96806.00;2066121;28;20499;-58
2023/07/07 13:41:22;;;;;;;15.03;7.23;;;;;;;33.94;26.68;96805.56;2067740;28;20510;-58
2023/07/07 13:42:26;;;;;;;16.17;6.60;;;;;;;33.78;27.11;96804.09;2066949;28;20431;-59
2023/07/07 13:43:32;;;;;;;11.00;6.20;;;;;;;33.33;27.05;96804.81;2070086;28;20858;-59
2023/07/07 13:44:34;;;;;;;10.73;6.50;;;;;;;33.22;27.56;96806.25;2075249;28;20427;-58
2023/07/07 13:45:35;;;;;;;13.80;7.17;;;;;;;33.12;27.63;96813.94;2074846;28;20493;-58
2023/07/07 13:46:37;;;;;;;11.17;6.90;;;;;;;32.30;27.92;96802.34;2074185;28;20491;-58
2023/07/07 13:47:46;;;;;;;13.23;7.77;;;;;;;31.91;28.44;96793.88;2074575;28;20427;-58
2023/07/07 13:48:53;;;;;;;10.57;7.03;;;;;;;31.77;28.68;96786.72;2076017;28;20909;-59
2023/07/07 13:49:58;;;;;;;13.23;7.10;;;;;;;31.88;28.63;96794.25;2075549;28;20450;-59
2023/07/07 13:51:05;;;;;;;13.00;7.07;;;;;;;32.05;29.03;96797.47;2072306;28;20539;-58
2023/07/07 13:52:19;;;;;;;12.20;7.63;;;;;;;32.24;28.64;96796.72;2074105;28;20958;-59
2023/07/07 13:53:21;;;;;;;17.17;7.37;;;;;;;32.08;29.04;96802.44;2075209;28;20483;-59
2023/07/07 13:54:24;;;;;;;13.00;6.67;;;;;;;32.76;27.78;96801.66;2075185;28;20900;-59
2023/07/07 13:55:30;;;;;;;22.23;7.50;;;;;;;32.36;27.90;96801.53;2074954;28;20530;-59
2023/07/07 13:56:55;;;;;;;11.70;7.47;;;;;;;32.39;27.84;96791.16;2076328;28;20510;-58
2023/07/07 13:57:58;;;;;;;13.60;7.33;;;;;;;32.30;27.67;96784.25;2076467;28;21102;-58
2023/07/07 13:59:00;;;;;;;13.03;6.77;;;;;;;31.91;28.94;96793.88;2076638;28;20431;-59
2023/07/07 14:00:02;;;;;;;13.60;6.77;;;;;;;32.88;27.70;96797.28;2074992;28;21209;-59
2023/07/07 14:01:04;;;;;;;14.33;7.70;;;;;;;33.34;26.87;96795.69;2075586;28;20422;-58
2023/07/07 14:02:13;;;;;;;12.27;6.70;;;;;;;33.03;27.04;96797.09;2075647;28;20788;-58
2023/07/07 14:03:18;;;;;;;12.07;7.37;;;;;;;33.61;27.37;96786.66;2076044;28;20430;-58
2023/07/07 14:04:25;;;;;;;13.40;7.73;;;;;;;33.97;27.04;96778.03;2075488;28;20439;-59
2023/07/07 14:05:32;;;;;;;11.83;7.27;;;;;;;33.56;26.40;96783.75;2074728;28;20469;-58
2023/07/07 14:06:33;;;;;;;12.27;6.33;;;;;;;32.65;27.61;96788.72;2076140;28;20422;-58
2023/07/07 14:07:37;;;;;;;11.77;6.77;;;;;;;32.72;27.93;96785.00;2075151;28;20427;-59
2023/07/07 14:08:38;;;;;;;13.27;7.47;;;;;;;32.94;27.13;96787.53;2075450;28;21228;-58
2023/07/07 14:09:43;;;;;;;8.27;6.10;;;;;;;33.23;27.43;96788.16;2074821;28;20455;-58
2023/07/07 14:10:49;;;;;;;13.63;8.03;;;;;;;32.76;27.09;96784.59;2072038;28;20431;-58
2023/07/07 14:11:52;;;;;;;14.67;7.33;;;;;;;32.47;27.84;96787.44;2074246;28;20431;-58
2023/07/07 14:12:55;;;;;;;11.40;7.10;;;;;;;32.48;28.18;96780.16;2075209;28;21114;-59
2023/07/07 14:13:59;;;;;;;14.17;7.43;;;;;;;32.56;27.62;96785.38;2075403;28;20426;-58
2023/07/07 14:15:01;;;;;;;12.00;7.10;;;;;;;32.48;27.93;96788.25;2074515;28;20455;-59
2023/07/07 14:16:06;;;;;;;9.20;6.33;;;;;;;32.49;27.65;96779.94;2075637;28;20509;-58
2023/07/07 14:17:35;;;;;;;18.20;7.70;;;;;;;32.81;27.21;96779.41;2075644;28;20834;-59
2023/07/07 14:18:43;;;;;;;9.67;6.77;;;;;;;32.56;27.62;96780.81;2071864;28;20445;-58
2023/07/07 14:19:59;;;;;;;12.07;7.20;;;;;;;32.15;28.18;96786.25;2072744;28;20418;-59
2023/07/07 14:21:03;;;;;;;13.13;7.33;;;;;;;31.98;28.01;96788.50;2072106;28;20474;-59
2023/07/07 14:22:06;;;;;;;11.37;6.70;;;;;;;32.00;27.86;96783.72;2073975;28;20435;-59
2023/07/07 14:23:12;;;;;;;14.47;7.20;;;;;;;32.08;27.82;96778.97;2074998;28;20427;-59
2023/07/07 14:24:16;;;;;;;11.73;7.10;;;;;;;32.33;27.40;96775.78;2076031;28;20426;-58
2023/07/07 14:25:20;;;;;;;13.23;7.30;;;;;;;32.36;27.62;96778.06;2073442;28;20495;-59
2023/07/07 14:26:23;;;;;;;14.00;7.40;;;;;;;33.14;27.19;96776.72;2072793;28;20510;-58
2023/07/07 14:27:30;;;;;;;13.80;7.00;;;;;;;32.66;27.02;96771.44;2076848;28;20431;-58
2023/07/07 14:28:36;;;;;;;9.37;6.53;;;;;;;32.23;27.56;96775.31;2076199;28;20461;-59
2023/07/07 14:29:39;;;;;;;14.13;6.80;;;;;;;32.52;27.10;96776.03;2074813;28;20434;-59
2023/07/07 14:30:55;;;;;;;9.37;6.33;;;;;;;32.62;27.00;96768.34;2075642;28;20465;-59
2023/07/07 14:32:00;;;;;;;9.97;6.80;;;;;;;32.65;26.96;96769.81;2074920;28;20426;-58
2023/07/07 14:33:01;;;;;;;10.20;6.87;;;;;;;32.21;27.22;96767.44;2076086;28;20510;-58
2023/07/07 14:34:03;;;;;;;10.63;6.43;;;;;;;32.39;27.90;96771.41;2075244;28;20431;-59
2023/07/07 14:35:20;;;;;;;9.53;6.60;;;;;;;32.30;27.71;96759.94;2071136;28;20463;-58
2023/07/07 14:36:28;;;;;;;10.37;6.93;;;;;;;33.17;27.11;96762.78;2075830;28;20596;-58
2023/07/07 14:37:38;;;;;;;12.63;6.33;;;;;;;33.19;27.18;96760.69;2077136;28;20434;-58
2023/07/07 14:38:47;;;;;;;12.00;7.20;;;;;;;33.49;27.24;96757.53;2075052;28;20491;-58
2023/07/07 14:39:50;;;;;;;11.00;6.60;;;;;;;33.09;27.51;96749.47;2074674;28;20479;-58
2023/07/07 14:40:55;;;;;;;12.10;6.97;;;;;;;33.46;27.29;96762.53;2075890;28;20899;-58
2023/07/07 14:42:15;;;;;;;12.13;6.87;;;;;;;31.79;27.62;96769.28;2075158;28;20960;-58
2023/07/07 14:43:28;;;;;;;13.00;6.70;;;;;;;32.67;27.25;96763.16;2076275;28;20434;-58
2023/07/07 14:44:48;;;;;;;10.00;6.53;;;;;;;33.94;26.49;96759.53;2071752;28;20482;-59
2023/07/07 14:46:03;;;;;;;9.37;6.53;;;;;;;34.01;26.27;96757.59;2074104;28;20434;-59
2023/07/07 14:47:09;;;;;;;18.37;6.87;;;;;;;33.26;26.50;96749.03;2074870;28;20434;-58